Time;durP1;ratioP1;P1;durP2;ratioP2;P2;SDS_P1;SDS_P2;PMS_P1;PMS_P2;Temp;Humidity;BMP_temperature;BMP_pressure;BME280_temperature;BME280_humidity;BME280_pressure;Samples;Min_cycle;Max_cycle;Signal;HPM_P1;HPM_P2
2022/07/30 00:02:18;;;;;;;4.13;3.10;;;16.90;99.90;;;;;;5076742;28;20178;-40
2022/07/30 00:04:43;;;;;;;4.40;3.07;;;16.90;99.90;;;;;;5077322;28;20256;-38
2022/07/30 00:07:09;;;;;;;8.70;3.50;;;16.80;99.90;;;;;;5076782;28;20199;-39
2022/07/30 00:09:35;;;;;;;3.80;3.13;;;16.80;99.90;;;;;;5076879;28;20673;-38
2022/07/30 00:12:01;;;;;;;5.50;4.10;;;16.70;99.90;;;;;;5076735;28;20647;-39
2022/07/30 00:14:27;;;;;;;5.50;3.70;;;16.70;99.90;;;;;;5076593;28;20550;-37
2022/07/30 00:16:53;;;;;;;5.07;3.87;;;16.70;99.90;;;;;;5076488;28;20172;-39
2022/07/30 00:19:19;;;;;;;4.37;3.60;;;16.60;99.90;;;;;;5077105;28;20671;-37
2022/07/30 00:21:45;;;;;;;5.70;3.40;;;16.60;99.90;;;;;;5076976;28;20314;-37
2022/07/30 00:24:11;;;;;;;4.47;3.73;;;16.60;99.90;;;;;;5076440;28;20195;-41
2022/07/30 00:26:36;;;;;;;6.13;4.63;;;16.50;99.90;;;;;;5076384;28;20171;-40
2022/07/30 00:29:03;;;;;;;14.70;3.73;;;16.40;99.90;;;;;;5076540;28;20180;-42
2022/07/30 00:31:29;;;;;;;5.00;3.80;;;16.40;99.90;;;;;;5076169;28;20191;-39
2022/07/30 00:33:55;;;;;;;5.00;3.87;;;16.30;99.90;;;;;;5076516;28;20712;-40
2022/07/30 00:36:20;;;;;;;8.13;4.57;;;16.30;99.90;;;;;;5076450;28;20275;-38
2022/07/30 00:38:46;;;;;;;5.10;3.73;;;16.30;99.90;;;;;;5075377;28;20184;-39
2022/07/30 00:41:12;;;;;;;6.37;3.90;;;16.20;99.90;;;;;;5075964;28;20250;-41
2022/07/30 00:43:37;;;;;;;7.93;4.23;;;16.20;99.90;;;;;;5075931;28;20196;-40
2022/07/30 00:46:03;;;;;;;6.57;4.47;;;16.10;99.90;;;;;;5076024;28;20201;-40
2022/07/30 00:48:28;;;;;;;5.87;4.20;;;16.10;99.90;;;;;;5076226;28;20519;-45
2022/07/30 00:50:54;;;;;;;5.27;4.50;;;16.10;99.90;;;;;;5076353;28;20330;-40
2022/07/30 00:53:19;;;;;;;5.60;4.43;;;16.10;99.90;;;;;;5076135;28;20225;-39
2022/07/30 00:55:45;;;;;;;8.53;5.20;;;16.10;99.90;;;;;;5075888;28;20215;-40
2022/07/30 00:58:11;;;;;;;8.27;4.70;;;16.00;99.90;;;;;;5076113;28;20168;-39
2022/07/30 01:00:36;;;;;;;9.53;4.93;;;15.90;99.90;;;;;;5075922;28;20671;-42
2022/07/30 01:03:03;;;;;;;6.17;4.70;;;16.00;99.90;;;;;;5075615;28;20545;-40
2022/07/30 01:05:29;;;;;;;6.73;4.60;;;16.00;99.90;;;;;;5075285;28;20187;-39
2022/07/30 01:07:54;;;;;;;6.97;5.17;;;16.00;99.90;;;;;;5075989;28;20171;-39
2022/07/30 01:10:20;;;;;;;8.23;5.53;;;15.90;99.90;;;;;;5075510;28;20687;-39
2022/07/30 01:12:46;;;;;;;5.77;4.93;;;15.90;99.90;;;;;;5074372;28;20635;-38
2022/07/30 01:15:11;;;;;;;6.57;4.43;;;15.90;99.90;;;;;;5075579;28;20195;-39
2022/07/30 01:17:38;;;;;;;5.57;4.13;;;15.90;99.90;;;;;;5075648;28;20199;-40
2022/07/30 01:20:42;;;;;;;7.67;5.17;;;15.90;99.90;;;;;;5075433;28;20655;-41
2022/07/30 01:23:18;;;;;;;6.07;4.40;;;15.80;99.90;;;;;;5075732;28;20189;-41
2022/07/30 01:25:59;;;;;;;7.73;5.07;;;15.80;99.90;;;;;;5075631;28;20160;-41
2022/07/30 01:28:35;;;;;;;4.87;4.30;;;15.70;99.90;;;;;;5075242;28;20238;-40
2022/07/30 01:31:03;;;;;;;5.43;4.43;;;15.70;99.90;;;;;;5075114;28;20538;-40
2022/07/30 01:33:30;;;;;;;6.50;4.43;;;15.70;99.90;;;;;;5075047;28;20730;-39
2022/07/30 01:35:57;;;;;;;7.53;4.27;;;15.60;99.90;;;;;;5075274;28;20179;-39
2022/07/30 01:38:26;;;;;;;5.43;4.43;;;15.60;99.90;;;;;;5074930;28;20262;-41
2022/07/30 01:40:53;;;;;;;9.70;4.57;;;15.50;99.90;;;;;;5074821;28;20191;-41
2022/07/30 01:43:21;;;;;;;5.67;3.90;;;15.50;99.90;;;;;;5074896;28;20603;-40
2022/07/30 01:45:48;;;;;;;7.83;4.07;;;15.50;99.90;;;;;;5075119;28;20187;-42
2022/07/30 01:48:17;;;;;;;6.57;4.00;;;15.40;99.90;;;;;;5074763;28;20168;-40
2022/07/30 01:50:45;;;;;;;7.37;4.77;;;15.40;99.90;;;;;;5074615;28;20194;-41
2022/07/30 01:53:17;;;;;;;6.57;4.43;;;15.40;99.90;;;;;;5074666;28;20203;-42
2022/07/30 01:55:45;;;;;;;5.53;4.33;;;15.30;99.90;;;;;;5074857;28;20638;-41
2022/07/30 01:58:12;;;;;;;7.30;5.40;;;15.30;99.90;;;;;;5074582;28;20647;-43
2022/07/30 02:00:41;;;;;;;7.90;4.83;;;15.20;99.90;;;;;;5074657;28;20681;-43
2022/07/30 02:03:09;;;;;;;8.13;4.70;;;15.20;99.90;;;;;;5074386;28;20205;-42
2022/07/30 02:05:36;;;;;;;9.23;4.07;;;15.20;99.90;;;;;;5074544;28;20199;-42
2022/07/30 02:08:43;;;;;;;8.20;4.80;;;15.20;99.90;;;;;;5074407;28;20262;-42
2022/07/30 02:11:12;;;;;;;9.57;5.20;;;15.10;99.90;;;;;;5032425;28;20254;-40
2022/07/30 02:14:01;;;;;;;6.13;4.63;;;15.10;99.90;;;;;;5032371;28;20268;-39
2022/07/30 02:16:30;;;;;;;5.50;4.30;;;15.10;99.90;;;;;;5060141;28;20192;-39
2022/07/30 02:19:05;;;;;;;8.40;5.33;;;15.00;99.90;;;;;;5074612;28;20179;-40
2022/07/30 02:21:36;;;;;;;7.03;4.83;;;15.00;99.90;;;;;;5072828;28;20194;-38
2022/07/30 02:24:07;;;;;;;6.00;4.83;;;15.10;99.90;;;;;;5074512;28;20187;-38
2022/07/30 02:26:36;;;;;;;9.33;4.70;;;15.10;99.90;;;;;;5074373;28;20218;-38
2022/07/30 02:29:02;;;;;;;8.57;5.07;;;15.00;99.90;;;;;;5074244;28;20211;-39
2022/07/30 02:31:31;;;;;;;6.00;4.77;;;15.00;99.90;;;;;;5073825;28;20241;-37
2022/07/30 02:34:01;;;;;;;5.73;4.53;;;15.00;99.90;;;;;;5073857;28;20171;-37
2022/07/30 02:36:28;;;;;;;9.60;4.87;;;15.00;99.90;;;;;;5074142;28;20160;-39
2022/07/30 02:38:55;;;;;;;6.23;5.23;;;14.90;99.90;;;;;;5073993;28;20232;-40
2022/07/30 02:41:24;;;;;;;6.93;4.77;;;14.90;99.90;;;;;;5073651;28;20257;-39
2022/07/30 02:43:51;;;;;;;7.33;5.17;;;14.90;99.90;;;;;;5073889;28;20690;-42
2022/07/30 02:46:18;;;;;;;4.80;4.40;;;14.80;99.90;;;;;;5073680;28;20217;-40
2022/07/30 02:48:46;;;;;;;6.40;4.13;;;14.80;99.90;;;;;;5074097;28;20175;-38
2022/07/30 02:51:15;;;;;;;7.50;4.07;;;14.80;99.90;;;;;;5074136;28;20203;-44
2022/07/30 02:53:44;;;;;;;5.67;4.40;;;14.70;99.90;;;;;;5073762;28;20198;-43
2022/07/30 02:56:12;;;;;;;6.47;4.90;;;14.70;99.90;;;;;;5074065;28;20187;-44
2022/07/30 02:58:39;;;;;;;7.43;5.17;;;14.60;99.90;;;;;;5073656;28;20172;-45
2022/07/30 03:01:07;;;;;;;8.60;4.77;;;14.60;99.90;;;;;;5073819;28;20571;-44
2022/07/30 03:03:34;;;;;;;5.50;4.57;;;14.60;99.90;;;;;;5073561;28;20600;-45
2022/07/30 03:06:01;;;;;;;5.80;4.27;;;14.60;99.90;;;;;;5073753;28;20176;-44
2022/07/30 03:08:27;;;;;;;7.40;4.40;;;14.60;99.90;;;;;;5073822;28;20185;-44
2022/07/30 03:10:54;;;;;;;7.17;4.67;;;14.60;99.90;;;;;;5073494;28;20199;-44
2022/07/30 03:13:22;;;;;;;5.20;4.67;;;14.50;99.90;;;;;;5073979;28;20176;-46
2022/07/30 03:15:49;;;;;;;6.43;4.90;;;14.50;99.90;;;;;;5073905;28;20810;-43
2022/07/30 03:18:18;;;;;;;5.60;4.47;;;14.50;99.90;;;;;;5073552;28;20206;-44
2022/07/30 03:20:48;;;;;;;10.37;5.13;;;14.50;99.90;;;;;;5073527;28;20713;-45
2022/07/30 03:23:17;;;;;;;7.47;4.83;;;14.50;99.90;;;;;;5073744;28;20179;-44
2022/07/30 03:25:47;;;;;;;6.27;4.67;;;14.50;99.90;;;;;;5073550;28;20206;-42
2022/07/30 03:28:14;;;;;;;8.33;5.27;;;14.50;99.90;;;;;;5074104;28;20156;-43
2022/07/30 03:30:42;;;;;;;6.17;5.03;;;14.40;99.90;;;;;;5073455;28;20243;-43
2022/07/30 03:33:09;;;;;;;5.33;4.30;;;14.40;99.90;;;;;;5073941;28;20621;-43
2022/07/30 03:35:35;;;;;;;6.40;4.97;;;14.40;99.90;;;;;;5073795;28;20182;-44
2022/07/30 03:38:01;;;;;;;7.27;5.00;;;14.40;99.90;;;;;;5074018;28;20266;-44
2022/07/30 03:40:28;;;;;;;8.07;5.27;;;14.40;99.90;;;;;;5073475;28;20767;-45
2022/07/30 03:42:54;;;;;;;8.23;4.73;;;14.40;99.90;;;;;;5073466;28;20297;-43
2022/07/30 03:45:21;;;;;;;7.70;5.00;;;14.30;99.90;;;;;;5073645;28;20183;-44
2022/07/30 03:47:47;;;;;;;10.40;4.80;;;14.30;99.90;;;;;;5073951;28;20270;-44
2022/07/30 03:50:14;;;;;;;8.00;5.37;;;14.30;99.90;;;;;;5073207;28;20195;-44
2022/07/30 03:52:41;;;;;;;8.80;4.90;;;14.30;99.90;;;;;;5073220;28;20278;-44
2022/07/30 03:55:09;;;;;;;7.40;5.80;;;14.30;99.90;;;;;;5073653;28;20183;-44
2022/07/30 03:57:35;;;;;;;8.40;5.47;;;14.30;99.90;;;;;;5073666;28;20650;-45
2022/07/30 04:00:02;;;;;;;8.70;5.50;;;14.20;99.90;;;;;;5073510;28;20294;-45
2022/07/30 04:02:28;;;;;;;8.53;5.07;;;14.30;99.90;;;;;;5073005;28;20218;-45
2022/07/30 04:04:53;;;;;;;9.93;5.70;;;14.30;99.90;;;;;;5073541;28;20639;-42
2022/07/30 04:07:20;;;;;;;8.00;5.30;;;14.30;99.90;;;;;;5073599;28;20187;-44
2022/07/30 04:09:45;;;;;;;10.83;6.00;;;14.40;99.90;;;;;;5073144;28;20683;-45
2022/07/30 04:12:12;;;;;;;7.63;5.57;;;14.40;99.90;;;;;;5073110;28;20256;-43
2022/07/30 04:14:40;;;;;;;9.57;6.03;;;14.40;99.90;;;;;;5074874;28;20204;-42
2022/07/30 04:17:11;;;;;;;13.67;6.17;;;14.50;99.90;;;;;;5076806;28;20231;-44
2022/07/30 04:19:51;;;;;;;11.53;5.87;;;14.50;99.90;;;;;;5076661;28;20184;-43
2022/07/30 04:22:22;;;;;;;8.93;6.17;;;14.60;99.90;;;;;;5076937;28;20167;-46
2022/07/30 04:24:50;;;;;;;11.87;6.67;;;14.70;99.90;;;;;;5076994;28;20188;-43
2022/07/30 04:27:17;;;;;;;13.93;6.60;;;14.80;99.90;;;;;;5077003;28;20260;-45
2022/07/30 04:29:43;;;;;;;9.07;6.33;;;14.80;99.90;;;;;;5076471;28;20202;-45
2022/07/30 04:32:09;;;;;;;12.67;7.33;;;14.90;99.90;;;;;;5076592;28;20184;-43
2022/07/30 04:34:34;;;;;;;14.13;7.37;;;14.90;99.90;;;;;;5076970;28;20270;-43
2022/07/30 04:37:00;;;;;;;14.43;8.40;;;15.00;99.90;;;;;;5076762;28;20659;-43
2022/07/30 04:39:26;;;;;;;17.53;7.60;;;15.00;99.90;;;;;;5076599;28;20262;-42
2022/07/30 04:41:52;;;;;;;14.80;8.30;;;15.10;99.90;;;;;;5076824;28;20258;-45
2022/07/30 04:44:18;;;;;;;14.30;7.67;;;15.10;99.90;;;;;;5076347;28;20207;-44
2022/07/30 04:46:45;;;;;;;20.37;8.57;;;15.20;99.90;;;;;;5076663;28;20180;-42
2022/07/30 04:49:12;;;;;;;14.40;8.80;;;15.30;99.90;;;;;;5076593;28;20172;-45
2022/07/30 04:51:39;;;;;;;19.00;9.07;;;15.30;99.90;;;;;;5076114;28;20198;-43
2022/07/30 04:54:07;;;;;;;14.47;8.90;;;15.40;99.90;;;;;;5076273;28;20179;-43
2022/07/30 04:56:34;;;;;;;13.53;8.40;;;15.40;99.90;;;;;;5076340;28;20180;-43
2022/07/30 04:59:01;;;;;;;19.77;9.37;;;15.50;99.90;;;;;;5076073;28;20229;-44
2022/07/30 05:01:36;;;;;;;18.23;10.40;;;15.50;99.90;;;;;;5076317;28;20290;-45
2022/07/30 05:04:04;;;;;;;21.70;10.73;;;15.60;99.90;;;;;;5076774;28;20206;-44
2022/07/30 05:06:31;;;;;;;19.37;11.03;;;15.60;99.90;;;;;;5075657;28;20217;-43
2022/07/30 05:08:57;;;;;;;21.27;12.03;;;15.70;99.90;;;;;;5075861;28;20168;-45
2022/07/30 05:11:22;;;;;;;22.03;11.27;;;15.70;99.90;;;;;;5075821;28;20200;-45
2022/07/30 05:13:48;;;;;;;24.00;11.93;;;15.70;99.90;;;;;;5075854;28;20258;-43
2022/07/30 05:16:14;;;;;;;30.43;12.73;;;15.80;99.90;;;;;;5074376;28;20196;-45
2022/07/30 05:18:40;;;;;;;24.80;13.33;;;15.80;99.90;;;;;;5075551;28;20272;-44
2022/07/30 05:21:07;;;;;;;21.00;12.13;;;15.80;99.90;;;;;;5075765;28;20674;-43
2022/07/30 05:23:33;;;;;;;30.13;13.47;;;15.80;99.90;;;;;;5076199;28;20204;-45
2022/07/30 05:25:59;;;;;;;28.43;13.97;;;15.80;99.90;;;;;;5073824;28;20186;-43
2022/07/30 05:28:25;;;;;;;25.90;13.20;;;15.80;99.90;;;;;;5075425;28;20176;-45
2022/07/30 05:30:52;;;;;;;24.07;14.47;;;15.90;99.90;;;;;;5075458;28;20207;-43
2022/07/30 05:33:18;;;;;;;26.53;13.37;;;15.90;99.90;;;;;;5075512;28;20623;-43
2022/07/30 05:35:44;;;;;;;29.47;13.87;;;15.90;99.90;;;;;;5075594;28;20206;-44
2022/07/30 05:38:10;;;;;;;28.57;14.60;;;15.90;99.90;;;;;;5075471;28;20633;-43
2022/07/30 05:40:35;;;;;;;27.50;14.47;;;15.90;99.90;;;;;;5075369;28;20210;-45
2022/07/30 05:43:01;;;;;;;31.00;15.53;;;16.00;99.90;;;;;;5073922;28;20214;-43
2022/07/30 05:45:26;;;;;;;25.33;13.80;;;16.10;99.90;;;;;;5075181;28;20190;-43
2022/07/30 05:47:52;;;;;;;25.53;13.90;;;16.10;99.90;;;;;;5074849;28;20635;-44
2022/07/30 05:50:18;;;;;;;24.87;13.63;;;16.20;99.90;;;;;;5074953;28;20196;-43
2022/07/30 05:52:43;;;;;;;24.97;14.27;;;16.20;99.90;;;;;;5074850;28;20180;-45
2022/07/30 05:55:09;;;;;;;25.83;13.33;;;16.30;99.90;;;;;;5074826;28;20294;-43
2022/07/30 05:57:35;;;;;;;22.27;13.37;;;16.30;99.90;;;;;;5074901;28;20706;-42
2022/07/30 06:00:05;;;;;;;23.40;13.40;;;16.30;99.90;;;;;;5074893;28;20282;-45
2022/07/30 06:02:30;;;;;;;19.20;12.53;;;16.30;99.90;;;;;;5074645;28;20183;-44
2022/07/30 06:04:56;;;;;;;18.33;10.90;;;16.40;99.90;;;;;;5074891;28;20182;-44
2022/07/30 06:07:22;;;;;;;26.37;11.77;;;16.40;99.90;;;;;;5075080;28;20171;-43
2022/07/30 06:09:47;;;;;;;18.20;11.50;;;16.40;99.90;;;;;;5074588;28;20195;-43
2022/07/30 06:12:13;;;;;;;20.03;11.23;;;16.50;99.90;;;;;;5074560;28;20172;-45
2022/07/30 06:14:39;;;;;;;18.87;12.00;;;16.50;99.90;;;;;;5074319;28;20176;-44
2022/07/30 06:17:05;;;;;;;18.77;11.17;;;16.60;99.90;;;;;;5074087;28;20275;-43
2022/07/30 06:19:30;;;;;;;26.77;12.37;;;16.60;99.90;;;;;;5074248;28;20175;-43
2022/07/30 06:21:56;;;;;;;19.47;12.03;;;16.70;99.90;;;;;;5074422;28;20207;-45
2022/07/30 06:24:21;;;;;;;19.33;11.57;;;16.70;99.90;;;;;;5074034;28;20282;-45
2022/07/30 06:26:47;;;;;;;19.73;11.67;;;16.70;99.90;;;;;;5074189;28;20171;-45
2022/07/30 06:29:12;;;;;;;25.03;12.17;;;16.80;99.90;;;;;;5074452;28;20175;-46
2022/07/30 06:31:39;;;;;;;16.63;11.73;;;16.80;99.90;;;;;;5074213;28;20195;-45
2022/07/30 06:34:05;;;;;;;18.57;11.77;;;16.90;99.90;;;;;;5074279;28;20259;-43
2022/07/30 06:36:30;;;;;;;18.80;13.17;;;16.90;99.90;;;;;;5072382;28;20611;-44
2022/07/30 06:38:56;;;;;;;22.73;13.17;;;16.90;99.90;;;;;;5073991;28;20188;-45
2022/07/30 06:41:22;;;;;;;22.20;12.93;;;17.10;99.90;;;;;;5073879;28;20195;-46
2022/07/30 06:43:47;;;;;;;19.17;13.07;;;17.20;99.90;;;;;;5074003;28;20203;-43
2022/07/30 06:46:13;;;;;;;19.70;11.53;;;17.30;99.90;;;;;;5074006;28;20645;-46
2022/07/30 06:48:41;;;;;;;15.87;12.43;;;17.40;99.90;;;;;;5074299;28;20175;-47
2022/07/30 06:51:06;;;;;;;21.23;11.77;;;17.50;99.90;;;;;;5073745;28;20195;-46
2022/07/30 06:53:32;;;;;;;18.20;12.07;;;17.70;99.90;;;;;;5073954;28;20188;-45
2022/07/30 06:55:58;;;;;;;20.50;13.10;;;17.80;99.90;;;;;;5073786;28;20189;-45
2022/07/30 06:58:23;;;;;;;16.43;12.70;;;17.80;99.90;;;;;;5074070;28;20183;-44
2022/07/30 07:00:49;;;;;;;17.33;12.93;;;17.90;99.90;;;;;;5072715;28;20358;-44
2022/07/30 07:03:14;;;;;;;17.83;11.97;;;18.00;99.90;;;;;;5073973;28;20203;-44
2022/07/30 07:05:40;;;;;;;19.33;12.30;;;18.10;99.90;;;;;;5073887;28;20685;-42
2022/07/30 07:08:06;;;;;;;19.37;12.33;;;18.20;99.90;;;;;;5073742;28;20258;-44
2022/07/30 07:10:31;;;;;;;17.83;11.67;;;18.40;99.90;;;;;;5073710;28;20245;-46
2022/07/30 07:12:59;;;;;;;18.33;10.60;;;18.40;99.90;;;;;;5073832;28;20187;-44
2022/07/30 07:15:25;;;;;;;19.23;10.90;;;18.50;99.90;;;;;;5073840;28;20190;-46
2022/07/30 07:17:51;;;;;;;16.70;9.83;;;18.60;99.90;;;;;;5073657;28;20192;-52
2022/07/30 07:20:17;;;;;;;18.80;11.23;;;18.70;99.90;;;;;;5073740;28;20200;-38
2022/07/30 07:22:43;;;;;;;17.10;11.43;;;18.80;99.90;;;;;;5073510;28;20199;-39
2022/07/30 07:25:08;;;;;;;15.37;10.33;;;18.80;99.90;;;;;;5073202;28;20168;-39
2022/07/30 07:27:35;;;;;;;17.60;10.40;;;18.80;99.90;;;;;;5072325;28;20699;-39
2022/07/30 07:30:00;;;;;;;17.40;11.23;;;19.00;99.90;;;;;;5073445;28;20550;-40
2022/07/30 07:32:26;;;;;;;13.83;10.30;;;19.00;99.90;;;;;;5073468;28;20179;-41
2022/07/30 07:34:52;;;;;;;17.17;9.90;;;19.10;99.90;;;;;;5073454;28;20176;-40
2022/07/30 07:37:17;;;;;;;19.47;9.73;;;19.20;99.90;;;;;;5073487;28;20282;-38
2022/07/30 07:39:43;;;;;;;18.27;10.37;;;19.30;99.90;;;;;;5073216;28;20270;-40
2022/07/30 07:42:08;;;;;;;20.50;11.90;;;19.40;99.90;;;;;;5073147;28;20179;-42
2022/07/30 07:44:34;;;;;;;18.13;10.50;;;19.30;99.90;;;;;;5072995;28;20200;-39
2022/07/30 07:46:59;;;;;;;18.63;10.57;;;19.40;99.90;;;;;;5073112;28;20543;-40
2022/07/30 07:49:25;;;;;;;16.53;10.43;;;19.40;99.90;;;;;;5076026;28;20202;-41
2022/07/30 07:51:51;;;;;;;19.27;9.67;;;19.60;99.90;;;;;;5077334;28;20243;-39
2022/07/30 07:54:16;;;;;;;13.60;9.57;;;19.70;99.90;;;;;;5077171;28;20168;-39
2022/07/30 07:56:42;;;;;;;17.80;10.00;;;19.90;99.90;;;;;;5077564;28;20164;-39
2022/07/30 07:59:07;;;;;;;16.00;10.07;;;20.00;99.90;;;;;;5077275;28;20523;-40
2022/07/30 08:01:33;;;;;;;13.00;9.40;;;20.20;99.90;;;;;;5077122;28;20203;-38
2022/07/30 08:03:59;;;;;;;15.17;9.10;;;20.30;99.90;;;;;;5076760;28;20729;-41
2022/07/30 08:06:25;;;;;;;12.23;9.93;;;20.60;99.90;;;;;;5076994;28;20179;-38
2022/07/30 08:08:50;;;;;;;16.63;10.23;;;20.70;99.90;;;;;;5077020;28;20171;-41
2022/07/30 08:11:16;;;;;;;15.13;9.93;;;20.80;99.90;;;;;;5076547;28;20191;-39
2022/07/30 08:13:42;;;;;;;18.60;11.10;;;20.70;99.90;;;;;;5076576;28;20232;-38
2022/07/30 08:16:09;;;;;;;18.47;10.53;;;20.70;99.90;;;;;;5076771;28;20194;-40
2022/07/30 08:18:36;;;;;;;14.00;9.70;;;20.70;99.90;;;;;;5076497;28;20199;-37
2022/07/30 08:21:02;;;;;;;14.57;10.67;;;20.70;99.90;;;;;;5076410;28;20187;-39
2022/07/30 08:23:27;;;;;;;16.90;10.40;;;20.80;99.90;;;;;;5076683;28;20207;-41
2022/07/30 08:25:55;;;;;;;18.20;11.40;;;20.80;99.90;;;;;;5076440;28;20175;-39
2022/07/30 08:28:20;;;;;;;14.53;9.57;;;20.90;99.90;;;;;;5076272;28;20294;-38
2022/07/30 08:30:46;;;;;;;17.03;10.33;;;21.00;99.90;;;;;;5076606;28;20199;-39
2022/07/30 08:33:12;;;;;;;15.17;10.53;;;21.20;99.90;;;;;;5076457;28;20179;-41
2022/07/30 08:35:37;;;;;;;18.13;10.17;;;21.30;99.90;;;;;;5076847;28;20559;-41
2022/07/30 08:38:03;;;;;;;15.07;8.80;;;21.40;99.90;;;;;;5076639;28;20206;-41
2022/07/30 08:40:32;;;;;;;14.03;8.70;;;21.50;99.90;;;;;;5076875;28;20553;-38
2022/07/30 08:43:00;;;;;;;13.93;7.37;;;21.70;99.90;;;;;;5076304;28;20305;-39
2022/07/30 08:45:26;;;;;;;12.70;6.70;;;21.70;99.90;;;;;;5076113;28;20180;-38
2022/07/30 08:47:52;;;;;;;9.57;6.67;;;21.70;99.90;;;;;;5075968;28;20643;-40
2022/07/30 08:50:18;;;;;;;11.50;7.00;;;21.70;99.90;;;;;;5075913;28;20714;-40
2022/07/30 08:52:44;;;;;;;12.53;7.30;;;21.90;99.90;;;;;;5075871;28;20263;-41
2022/07/30 08:55:09;;;;;;;7.37;5.97;;;21.90;99.90;;;;;;5075946;28;20207;-41
2022/07/30 08:57:35;;;;;;;11.30;6.40;;;21.90;99.90;;;;;;5075899;28;20206;-37
2022/07/30 09:00:03;;;;;;;14.13;6.73;;;22.00;99.90;;;;;;5075223;28;20188;-41
2022/07/30 09:02:32;;;;;;;8.90;5.80;;;22.00;99.90;;;;;;5075626;28;20283;-41
2022/07/30 09:04:58;;;;;;;9.67;6.37;;;22.10;99.90;;;;;;5075662;28;20246;-41
2022/07/30 09:07:23;;;;;;;11.80;6.97;;;22.20;99.90;;;;;;5075905;28;20218;-40
2022/07/30 09:09:49;;;;;;;13.27;7.07;;;22.40;99.90;;;;;;5075886;28;20542;-39
2022/07/30 09:12:41;;;;;;;7.13;5.20;;;22.50;99.90;;;;;;5074315;28;20678;-41
2022/07/30 09:15:19;;;;;;;9.13;5.50;;;22.40;99.90;;;;;;5075837;28;20627;-42
2022/07/30 09:18:02;;;;;;;7.67;4.70;;;22.30;99.90;;;;;;5075746;28;20555;-41
2022/07/30 09:20:29;;;;;;;10.20;4.80;;;22.30;99.90;;;;;;5075362;28;20195;-42
2022/07/30 09:22:57;;;;;;;7.80;5.20;;;22.60;99.90;;;;;;5075304;28;20677;-38
2022/07/30 09:25:43;;;;;;;7.77;5.30;;;22.70;99.90;;;;;;5075409;28;20229;-40
2022/07/30 09:28:10;;;;;;;7.43;4.67;;;22.90;99.90;;;;;;5075811;28;20515;-41
2022/07/30 09:30:44;;;;;;;8.80;4.50;;;22.80;99.90;;;;;;5075132;28;20670;-41
2022/07/30 09:33:10;;;;;;;9.83;5.30;;;22.60;99.90;;;;;;5075391;28;20171;-40
2022/07/30 09:35:36;;;;;;;12.07;4.63;;;22.50;99.90;;;;;;5075103;28;20202;-41
2022/07/30 09:38:03;;;;;;;10.13;4.40;;;22.70;99.90;;;;;;5075333;28;20234;-40
2022/07/30 09:40:28;;;;;;;7.27;4.17;;;22.60;99.90;;;;;;5075173;28;20204;-41
2022/07/30 09:43:06;;;;;;;9.27;4.87;;;22.70;99.90;;;;;;5075133;28;20211;-40
2022/07/30 09:45:32;;;;;;;7.73;4.67;;;22.90;99.90;;;;;;5075175;28;20213;-40
2022/07/30 09:47:57;;;;;;;9.33;4.63;;;23.00;99.90;;;;;;5074861;28;20178;-39
2022/07/30 09:50:23;;;;;;;6.47;4.60;;;23.20;99.90;;;;;;5074986;28;20191;-41
2022/07/30 09:52:50;;;;;;;6.27;3.87;;;23.20;99.90;;;;;;5074773;28;20258;-41
2022/07/30 09:55:42;;;;;;;9.43;4.63;;;23.30;99.90;;;;;;5075015;28;20160;-41
2022/07/30 09:58:10;;;;;;;8.17;4.40;;;23.20;99.90;;;;;;5073208;28;20183;-41
2022/07/30 10:00:36;;;;;;;17.23;4.17;;;23.20;99.90;;;;;;5075668;28;20203;-42
2022/07/30 10:03:23;;;;;;;7.60;3.40;;;23.40;99.90;;;;;;5075627;28;20749;-40
2022/07/30 10:05:56;;;;;;;7.90;3.43;;;23.60;99.90;;;;;;5075570;28;20243;-41
2022/07/30 10:08:37;;;;;;;6.30;3.30;;;23.60;99.90;;;;;;5074784;28;20160;-43
2022/07/30 10:11:03;;;;;;;6.77;3.47;;;23.70;99.90;;;;;;5074099;28;20274;-43
2022/07/30 10:13:29;;;;;;;4.53;2.90;;;23.90;99.90;;;;;;5073891;28;20218;-41
2022/07/30 10:15:55;;;;;;;5.07;2.57;;;24.00;99.90;;;;;;5074424;28;20192;-44
2022/07/30 10:18:21;;;;;;;5.50;2.60;;;24.00;99.90;;;;;;5074231;28;20248;-42
2022/07/30 10:20:47;;;;;;;6.53;2.70;;;24.10;99.90;;;;;;5074083;28;20200;-42
2022/07/30 10:23:13;;;;;;;5.60;3.00;;;24.20;99.90;;;;;;5075078;28;20599;-41
2022/07/30 10:25:40;;;;;;;6.43;3.63;;;24.20;99.90;;;;;;5074197;28;20681;-42
2022/07/30 10:28:06;;;;;;;5.30;3.70;;;24.20;99.90;;;;;;5074251;28;20639;-44
2022/07/30 10:30:32;;;;;;;10.47;3.07;;;24.30;99.90;;;;;;5074037;28;20198;-42
2022/07/30 10:33:00;;;;;;;5.67;3.30;;;24.40;99.90;;;;;;5073963;28;20179;-42
2022/07/30 10:35:26;;;;;;;8.63;3.00;;;24.40;99.90;;;;;;5074224;28;20685;-41
2022/07/30 10:37:53;;;;;;;7.00;3.33;;;24.30;99.90;;;;;;5074414;28;20183;-43
2022/07/30 10:40:32;;;;;;;5.03;3.57;;;24.40;99.90;;;;;;5073743;28;20199;-43
2022/07/30 10:43:14;;;;;;;6.27;3.60;;;24.40;99.90;;;;;;5072609;28;20199;-41
2022/07/30 10:46:07;;;;;;;7.63;3.10;;;24.40;99.90;;;;;;5074413;28;20622;-41
2022/07/30 10:48:33;;;;;;;4.37;2.90;;;24.50;99.90;;;;;;5074898;28;20164;-45
2022/07/30 10:50:59;;;;;;;4.07;3.47;;;24.70;99.90;;;;;;5074922;28;20199;-45
2022/07/30 10:53:33;;;;;;;6.77;3.20;;;24.80;99.90;;;;;;5074548;28;20550;-44
2022/07/30 10:56:22;;;;;;;12.17;3.57;;;24.80;99.90;;;;;;5075072;28;20179;-44
2022/07/30 10:59:10;;;;;;;4.63;3.07;;;24.80;99.90;;;;;;5075273;28;20160;-44
2022/07/30 11:01:47;;;;;;;8.10;3.07;;;24.90;99.90;;;;;;5074952;28;20199;-45
2022/07/30 11:04:18;;;;;;;3.20;2.22;;;24.90;99.90;;;;;;5074883;28;20630;-46
2022/07/30 11:06:43;;;;;;;3.53;2.27;;;25.10;99.90;;;;;;5075416;28;20162;-45
2022/07/30 11:09:41;;;;;;;3.75;2.47;;;25.20;99.90;;;;;;5075625;28;20270;-46
2022/07/30 11:12:08;;;;;;;3.88;2.28;;;25.30;99.90;;;;;;5075354;28;20605;-45
2022/07/30 11:14:45;;;;;;;5.40;3.13;;;25.40;99.90;;;;;;5075402;28;20543;-45
2022/07/30 11:17:16;;;;;;;5.00;3.17;;;25.60;99.90;;;;;;5073447;28;20198;-46
2022/07/30 11:20:08;;;;;;;6.15;2.75;;;25.80;99.90;;;;;;5074601;28;20211;-45
2022/07/30 11:22:39;;;;;;;4.20;2.60;;;25.80;99.90;;;;;;5074563;28;20650;-44
2022/07/30 11:25:07;;;;;;;4.65;2.70;;;25.70;99.90;;;;;;5074304;28;20194;-45
2022/07/30 11:27:45;;;;;;;4.65;2.72;;;25.40;99.90;;;;;;5073964;28;20164;-45
2022/07/30 11:30:17;;;;;;;3.13;2.53;;;25.30;99.90;;;;;;5074536;28;20199;-45
2022/07/30 11:32:50;;;;;;;5.15;2.53;;;25.30;99.90;;;;;;5073904;28;20177;-46
2022/07/30 11:35:22;;;;;;;3.28;2.25;;;25.40;99.90;;;;;;5073878;28;20163;-45
2022/07/30 11:38:07;;;;;;;5.93;2.97;;;25.60;99.90;;;;;;5073327;28;20174;-44
2022/07/30 11:41:08;;;;;;;4.10;2.40;;;25.80;99.90;;;;;;5073206;28;20195;-46
2022/07/30 11:43:35;;;;;;;7.25;2.70;;;26.00;99.90;;;;;;5073415;28;20233;-46
2022/07/30 11:46:12;;;;;;;3.58;2.17;;;26.10;99.90;;;;;;5073992;28;20194;-46
2022/07/30 11:48:40;;;;;;;7.13;2.65;;;26.20;99.90;;;;;;5073471;28;20217;-44
2022/07/30 11:51:06;;;;;;;3.10;2.15;;;26.40;99.90;;;;;;5073282;28;20198;-45
2022/07/30 11:53:33;;;;;;;9.07;2.05;;;26.50;99.90;;;;;;5073794;28;20179;-46
2022/07/30 11:56:00;;;;;;;5.75;2.17;;;26.60;99.90;;;;;;5073551;28;20651;-46
2022/07/30 11:58:31;;;;;;;5.40;2.05;;;26.50;99.90;;;;;;5073265;28;20176;-46
2022/07/30 12:01:01;;;;;;;3.00;2.08;;;26.20;99.90;;;;;;5073170;28;20200;-46
2022/07/30 12:03:27;;;;;;;4.55;1.92;;;26.10;99.90;;;;;;5073179;28;20199;-48
2022/07/30 12:05:53;;;;;;;3.35;1.40;;;26.00;99.90;;;;;;5073122;28;20179;-45
2022/07/30 12:08:20;;;;;;;2.25;1.40;;;26.00;99.90;;;;;;5073233;28;20259;-47
2022/07/30 12:10:59;;;;;;;2.28;1.30;;;25.90;99.90;;;;;;5072885;28;20285;-48
2022/07/30 12:13:26;;;;;;;2.50;1.60;;;26.00;99.90;;;;;;5073106;28;20246;-47
2022/07/30 12:15:52;;;;;;;3.08;1.63;;;25.90;99.90;;;;;;5073239;28;20546;-47
2022/07/30 12:18:29;;;;;;;1.90;1.35;;;26.00;99.90;;;;;;5072630;28;20204;-49
2022/07/30 12:20:56;;;;;;;5.40;1.70;;;26.00;99.90;;;;;;5072702;28;20266;-48
2022/07/30 12:23:22;;;;;;;4.32;1.77;;;26.00;99.90;;;;;;5072630;28;20226;-47
2022/07/30 12:25:48;;;;;;;3.13;1.50;;;26.00;99.90;;;;;;5072757;28;20168;-48
2022/07/30 12:28:22;;;;;;;1.55;1.30;;;26.20;99.90;;;;;;5072685;28;20230;-49
2022/07/30 12:30:48;;;;;;;2.55;1.27;;;26.50;99.90;;;;;;5072887;28;20200;-48
2022/07/30 12:33:14;;;;;;;2.67;1.37;;;26.50;99.90;;;;;;5072943;28;20175;-48
2022/07/30 12:35:50;;;;;;;1.15;1.00;;;26.50;99.90;;;;;;5073977;28;20262;-48
2022/07/30 12:38:17;;;;;;;3.05;1.48;;;26.40;99.90;;;;;;5076118;28;20274;-47
2022/07/30 12:41:12;;;;;;;2.97;1.30;;;26.30;99.90;;;;;;5076257;28;20195;-48
2022/07/30 12:43:43;;;;;;;3.27;1.47;;;26.30;99.90;;;;;;5068054;28;20701;-49
2022/07/30 12:46:10;;;;;;;2.73;1.30;;;26.20;99.90;;;;;;5076347;28;20179;-46
2022/07/30 12:48:36;;;;;;;3.43;1.60;;;26.10;99.90;;;;;;5075867;28;20178;-47